Terminal Aerodrome Forecast
Issued by NWS

Current Version | Previous Version | Text Only | Print | Product List | Glossary On
Versions: 1 2 3 4 5 6 7 8 9 10 11 12 13 14 15 16 17 18
000
FTUS41 KALY 010200 AAA
TAFPSF
TAF AMD
KPSF 010241Z 0103/0124 06003KT P6SM VCSH FEW005 OVC015
      TEMPO 0103/0107 3SM BR SCT015 BKN060
     FM011500 03005KT 4SM -RA BR BKN008 OVC015
     FM011900 01006KT 6SM BR VCSH BKN012 OVC025=

USA.gov is the U.S. government's official web portal to all federal, state and local government web resources and services.